Etusivu
METAR-TAF:

METAR-TAF

Lentoasemat :

El Borma, Tunisia

Leveyspiiri: 31-41N, Pituuspiiri: 009-10E, korkeus merenpinnasta: 258 m

Tämänhetkinen sää

Tämä raportti tehtiin 42 minuuttia sitten, kello 10.00 UTC
Tuuli 16 kn idästä
Lämpötila 22°C
Kosteus 53%
Ilmanpaine 1015 hPa
Näkyvyys 10 km tai enemmän
Muutamia pilviä 2000 ft:n korkeudessa

METAR: DTTR 211000Z 08016KT 9999 FEW020 22/12 Q1015

Aika: 11:42 (10:42 UTC)


TAF: puuttuu

Säähavainnot ja -ennusteet yli 4000 lentoasemalta (METAR- ja TAF-raportit).

Käytössä olevat sääasemat on merkitty karttaan keltaisilla ja punaisilla pisteillä.

Aseta hiiri pisteen päälle nähdäksesi sääaseman nimen.

Klikkaa sitten nähdäksesi säähavainnot ja -ennusteet.

Kartan vaihtaminen: klikkaa mustalla rastilla varustettuja vihreitä pisteitä, niin voit zoomata sisään; viivalla varustettua vihreää pistettä, niin voit zoomata ulos tai vihreitä nuolia, niin pääset viereisille kartoille.


METAR-TAF: